Terminal Aerodrome Forecast
Issued by NWS Tuscon, AZ

Home | Current Version | Previous Version | Text Only | Print | Product List | Glossary On
Versions: 1 2 3 4 5 6 7 8 9 10 11 12 13
000
FTUS45 KTWC 230500
TAFDUG
TAF
KDUG 230520Z 2306/2406 24008KT P6SM BKN200
     FM231200 13006KT P6SM SCT200
     FM231800 24022G32KT P6SM SCT200
     FM240300 28013KT P6SM SCT200=

USA.gov is the U.S. government's official web portal to all federal, state and local government web resources and services.